createdAt,value
2017-12-23T00:00:16.133Z,102994.28
2017-12-23T00:02:44.545Z,102982.95
2017-12-23T00:05:12.969Z,102981.73
2017-12-23T00:07:41.395Z,102987.78
2017-12-23T00:10:09.777Z,102982.87
2017-12-23T00:12:38.092Z,102981.71
2017-12-23T00:15:06.425Z,102964.92
2017-12-23T00:20:32.314Z,102956.43
2017-12-23T00:23:00.698Z,102956.13
2017-12-23T00:25:29.068Z,102956.48
2017-12-23T00:27:57.823Z,102960.91
2017-12-23T00:30:26.936Z,102954.44
2017-12-23T00:32:55.266Z,102951.40
2017-12-23T00:35:23.923Z,102949.47
2017-12-23T00:37:52.284Z,102942.14
2017-12-23T00:40:20.627Z,102943.08
2017-12-23T00:42:49.421Z,102941.67
2017-12-23T00:45:17.835Z,102939.91
2017-12-23T00:47:46.219Z,102923.44
2017-12-23T00:50:15.027Z,102918.32
2017-12-23T00:52:43.376Z,102918.32
2017-12-23T00:55:12.488Z,102915.03
2017-12-23T00:57:41.091Z,102911.09
2017-12-23T01:00:09.438Z,102901.33
2017-12-23T01:02:37.763Z,102898.52
2017-12-23T01:05:06.916Z,102894.79
2017-12-23T01:07:35.276Z,102884.75
2017-12-23T01:10:04.397Z,102885.52
2017-12-23T01:12:33.192Z,102884.02
2017-12-23T01:15:01.546Z,102885.89
2017-12-23T01:17:29.895Z,102884.27
2017-12-23T01:19:58.546Z,102887.91
2017-12-23T01:22:27.117Z,102898.18
2017-12-23T01:24:56.248Z,102891.66
2017-12-23T01:27:26.064Z,102891.92
2017-12-23T01:29:54.386Z,102889.80
2017-12-23T01:32:22.747Z,102885.50
2017-12-23T01:34:51.400Z,102878.46
2017-12-23T01:37:19.735Z,102890.88
2017-12-23T01:39:48.855Z,102884.06
2017-12-23T01:42:17.632Z,102886.23
2017-12-23T01:44:49.047Z,102879.77
2017-12-23T01:47:18.149Z,102877.72
2017-12-23T01:49:47.178Z,102876.64
2017-12-23T01:52:15.518Z,102885.75
2017-12-23T01:54:43.997Z,102891.80
2017-12-23T01:57:12.674Z,102884.02
2017-12-23T01:59:41.075Z,102881.63
2017-12-23T02:02:09.520Z,102877.53
2017-12-23T02:04:38.168Z,102864.86
2017-12-23T02:07:06.529Z,102859.88
2017-12-23T02:09:34.856Z,102856.27
2017-12-23T02:12:03.554Z,102868.42
2017-12-23T02:14:31.884Z,102855.98
2017-12-23T02:17:00.266Z,102860.21
2017-12-23T02:19:29.614Z,102848.61
2017-12-23T02:21:57.957Z,102843.34
2017-12-23T02:24:27.118Z,102847.29
2017-12-23T02:26:56.072Z,102841.23
2017-12-23T02:29:24.437Z,102837.13
2017-12-23T02:31:54.162Z,102831.89
2017-12-23T02:34:22.952Z,102827.50
2017-12-23T02:36:51.287Z,102820.52
2017-12-23T02:39:19.641Z,102820.59
2017-12-23T02:41:48.391Z,102810.54
2017-12-23T02:44:16.729Z,102796.80
2017-12-23T02:46:45.083Z,102786.16
2017-12-23T02:49:13.834Z,102778.20
2017-12-23T02:51:42.212Z,102758.50
2017-12-23T02:54:10.591Z,102756.03
2017-12-23T02:56:39.380Z,102751.08
2017-12-23T02:59:07.776Z,102755.75
2017-12-23T03:01:36.110Z,102738.47
2017-12-23T03:04:05.308Z,102731.52
2017-12-23T03:06:33.726Z,102721.81
2017-12-23T03:09:02.165Z,102721.01
2017-12-23T03:11:30.547Z,102715.36
2017-12-23T03:13:59.028Z,102718.68
2017-12-23T03:16:27.427Z,102720.11
2017-12-23T03:18:57.286Z,102718.18
2017-12-23T03:21:25.767Z,102714.84
2017-12-23T03:23:54.154Z,102717.94
2017-12-23T03:26:22.670Z,102732.86
2017-12-23T03:28:51.146Z,102726.77
2017-12-23T03:31:20.446Z,102725.14
2017-12-23T03:33:48.926Z,102731.78
2017-12-23T03:36:17.292Z,102723.92
2017-12-23T03:38:45.804Z,102717.17
2017-12-23T03:41:15.061Z,102715.64
2017-12-23T03:43:43.467Z,102718.66
2017-12-23T03:46:11.826Z,102711.72
2017-12-23T03:48:40.281Z,102705.49
2017-12-23T03:51:08.689Z,102695.36
2017-12-23T03:53:37.187Z,102686.91
2017-12-23T03:56:05.667Z,102682.86
2017-12-23T03:58:34.053Z,102676.22
2017-12-23T04:01:03.251Z,102686.72
2017-12-23T04:03:32.052Z,102688.91
2017-12-23T04:06:01.238Z,102672.27
2017-12-23T04:08:29.731Z,102672.52
2017-12-23T04:10:58.163Z,102670.14
2017-12-23T04:13:26.513Z,102662.40
2017-12-23T04:15:54.939Z,102655.19
2017-12-23T04:18:23.433Z,102644.41
2017-12-23T04:20:51.843Z,102639.72
2017-12-23T04:23:20.251Z,102626.62
2017-12-23T04:25:49.221Z,102628.38
2017-12-23T04:28:17.585Z,102615.55
2017-12-23T04:30:46.068Z,102610.04
2017-12-23T04:33:14.445Z,102605.41
2017-12-23T04:35:43.599Z,102613.16
2017-12-23T04:38:12.002Z,102616.63
2017-12-23T04:40:40.492Z,102614.36
2017-12-23T04:43:09.791Z,102602.82
2017-12-23T04:45:38.924Z,102600.91
2017-12-23T04:48:07.757Z,102597.42
2017-12-23T04:50:36.116Z,102588.11
2017-12-23T04:53:04.543Z,102582.28
2017-12-23T04:55:33.794Z,102584.27
2017-12-23T04:58:02.321Z,102574.24
2017-12-23T05:00:30.923Z,102573.88
2017-12-23T05:02:59.462Z,102574.47
2017-12-23T05:05:28.666Z,102566.42
2017-12-23T05:07:57.264Z,102571.55
2017-12-23T05:10:26.798Z,102570.95
2017-12-23T05:12:55.236Z,102569.39
2017-12-23T05:15:23.626Z,102582.09
2017-12-23T05:17:52.060Z,102582.31
2017-12-23T05:20:20.545Z,102577.27
2017-12-23T05:22:48.967Z,102589.41
2017-12-23T05:25:17.463Z,102578.98
2017-12-23T05:27:46.751Z,102574.29
2017-12-23T05:30:15.227Z,102567.34
2017-12-23T05:32:43.810Z,102579.69
2017-12-23T05:35:12.262Z,102573.27
2017-12-23T05:37:40.680Z,102557.08
2017-12-23T05:40:09.118Z,102572.12
2017-12-23T05:42:37.690Z,102572.42
2017-12-23T05:45:06.117Z,102577.20
2017-12-23T05:47:35.314Z,102570.64
2017-12-23T05:50:03.738Z,102560.75
2017-12-23T05:52:32.089Z,102557.77
2017-12-23T05:55:01.682Z,102547.40
2017-12-23T05:57:39.685Z,102552.88
2017-12-23T06:00:08.114Z,102553.84
2017-12-23T06:02:36.548Z,102556.95
2017-12-23T06:05:04.934Z,102548.13
2017-12-23T06:07:33.472Z,102540.88
2017-12-23T06:10:01.891Z,102539.64
2017-12-23T06:12:30.474Z,102538.24
2017-12-23T06:14:59.773Z,102529.91
2017-12-23T06:17:28.259Z,102538.92
2017-12-23T06:19:56.738Z,102543.02
2017-12-23T06:22:25.205Z,102532.65
2017-12-23T06:24:54.626Z,102516.78
2017-12-23T06:27:23.040Z,102510.61
2017-12-23T06:29:51.601Z,102507.34
2017-12-23T06:32:20.076Z,102503.57
2017-12-23T06:34:49.232Z,102503.76
2017-12-23T06:37:18.203Z,102504.33
2017-12-23T06:39:46.582Z,102496.14
2017-12-23T06:42:14.922Z,102494.08
2017-12-23T06:44:43.324Z,102481.36
2017-12-23T06:47:11.780Z,102471.89
2017-12-23T06:49:40.238Z,102481.09
2017-12-23T06:52:08.720Z,102483.36
2017-12-23T06:54:37.172Z,102472.62
2017-12-23T06:57:05.707Z,102470.52
2017-12-23T06:59:34.514Z,102456.80
2017-12-23T07:02:03.798Z,102460.74
2017-12-23T07:04:32.249Z,102454.25
2017-12-23T07:07:00.769Z,102442.22
2017-12-23T07:09:29.259Z,102433.41
2017-12-23T07:11:58.552Z,102430.39
2017-12-23T07:14:27.117Z,102417.21
2017-12-23T07:16:55.527Z,102409.16
2017-12-23T07:19:24.640Z,102413.56
2017-12-23T07:21:53.604Z,102410.30
2017-12-23T07:24:22.081Z,102398.47
2017-12-23T07:26:50.461Z,102403.87
2017-12-23T07:29:19.012Z,102412.81
2017-12-23T07:31:47.424Z,102410.85
2017-12-23T07:34:15.802Z,102408.95
2017-12-23T07:36:44.185Z,102409.98
2017-12-23T07:39:12.567Z,102412.55
2017-12-23T07:41:41.048Z,102406.81
2017-12-23T07:44:09.811Z,102412.28
2017-12-23T07:46:38.259Z,102403.70
2017-12-23T07:49:06.599Z,102407.91
2017-12-23T07:51:34.978Z,102421.02
2017-12-23T07:54:03.458Z,102421.78
2017-12-23T07:56:31.835Z,102425.42
2017-12-23T07:59:00.286Z,102421.16
2017-12-23T08:01:29.444Z,102420.45
2017-12-23T08:03:58.610Z,102424.44
2017-12-23T08:06:27.408Z,102407.40
2017-12-23T08:08:55.876Z,102412.70
2017-12-23T08:11:24.305Z,102408.45
2017-12-23T08:13:52.727Z,102416.39
2017-12-23T08:16:21.235Z,102402.65
2017-12-23T08:18:49.689Z,102401.30
2017-12-23T08:21:18.128Z,102398.97
2017-12-23T08:23:46.474Z,102404.66
2017-12-23T08:26:14.893Z,102395.95
2017-12-23T08:28:43.482Z,102393.28
2017-12-23T08:31:11.903Z,102384.09
2017-12-23T08:33:40.377Z,102393.78
2017-12-23T08:36:08.857Z,102402.26
2017-12-23T08:38:37.265Z,102410.06
2017-12-23T08:41:06.466Z,102404.34
2017-12-23T08:43:35.126Z,102410.27
2017-12-23T08:46:03.595Z,102436.02
2017-12-23T08:48:32.082Z,102431.73
2017-12-23T08:51:00.836Z,102431.03
2017-12-23T08:53:29.275Z,102410.97
2017-12-23T08:55:57.865Z,102420.08
2017-12-23T08:58:26.571Z,102406.05
2017-12-23T09:00:55.829Z,102398.23
2017-12-23T09:03:24.294Z,102410.45
2017-12-23T09:05:52.815Z,102394.56
2017-12-23T09:08:22.093Z,102384.61
2017-12-23T09:10:50.573Z,102386.88
2017-12-23T09:13:19.761Z,102386.81
2017-12-23T09:15:48.167Z,102387.09
2017-12-23T09:18:16.590Z,102390.72
2017-12-23T09:20:45.048Z,102403.45
2017-12-23T09:23:13.515Z,102400.81
2017-12-23T09:25:41.977Z,102405.86
2017-12-23T09:28:11.179Z,102406.41
2017-12-23T09:30:39.600Z,102399.23
2017-12-23T09:33:08.879Z,102403.66
2017-12-23T09:35:37.461Z,102397.47
2017-12-23T09:38:05.866Z,102403.83
2017-12-23T09:40:34.219Z,102391.98
2017-12-23T09:43:02.641Z,102395.31
2017-12-23T09:45:31.094Z,102387.97
2017-12-23T09:47:59.465Z,102388.63
2017-12-23T09:50:27.900Z,102393.20
2017-12-23T09:52:56.235Z,102385.87
2017-12-23T09:55:25.427Z,102384.06
2017-12-23T09:57:53.974Z,102393.55
2017-12-23T10:00:22.335Z,102390.54
2017-12-23T10:02:50.751Z,102388.19
2017-12-23T10:05:19.206Z,102375.36
2017-12-23T10:07:47.520Z,102362.51
2017-12-23T10:10:15.862Z,102368.41
2017-12-23T10:12:44.217Z,102364.86
2017-12-23T10:15:12.625Z,102368.74
2017-12-23T10:17:40.976Z,102360.98
2017-12-23T10:20:09.467Z,102353.42
2017-12-23T10:22:37.825Z,102347.33
2017-12-23T10:25:06.924Z,102346.47
2017-12-23T10:27:36.063Z,102340.43
2017-12-23T10:30:05.460Z,102345.78
2017-12-23T10:32:33.876Z,102335.70
2017-12-23T10:35:02.261Z,102335.26
2017-12-23T10:37:30.621Z,102344.80
2017-12-23T10:39:59.002Z,102320.87
2017-12-23T10:42:27.647Z,102316.91
2017-12-23T10:44:56.053Z,102325.36
2017-12-23T10:47:24.475Z,102317.54
2017-12-23T10:49:53.650Z,102321.05
2017-12-23T10:52:22.006Z,102312.13
2017-12-23T10:54:50.430Z,102325.66
2017-12-23T10:57:19.546Z,102317.54
2017-12-23T10:59:47.902Z,102314.47
2017-12-23T11:02:16.277Z,102300.64
2017-12-23T11:04:44.994Z,102298.06
2017-12-23T11:07:13.359Z,102292.28
2017-12-23T11:09:42.632Z,102281.40
2017-12-23T11:12:10.979Z,102271.75
2017-12-23T11:14:39.307Z,102270.55
2017-12-23T11:17:07.679Z,102276.47
2017-12-23T11:19:36.107Z,102266.84
2017-12-23T11:22:04.449Z,102256.69
2017-12-23T11:24:33.554Z,102252.09
2017-12-23T11:27:03.009Z,102263.11
2017-12-23T11:29:31.396Z,102251.23
2017-12-23T11:32:00.267Z,102250.46
2017-12-23T11:34:28.645Z,102240.44
2017-12-23T11:36:57.031Z,102239.34
2017-12-23T11:39:25.399Z,102234.76
2017-12-23T11:41:53.755Z,102250.46
2017-12-23T11:44:22.195Z,102246.14
2017-12-23T11:46:51.299Z,102245.66
2017-12-23T11:49:19.978Z,102246.56
2017-12-23T11:51:48.351Z,102246.67
2017-12-23T11:54:16.711Z,102244.96
2017-12-23T11:56:45.082Z,102238.92
2017-12-23T11:59:13.406Z,102240.84
2017-12-23T12:01:42.612Z,102235.94
2017-12-23T12:04:11.408Z,102232.84
2017-12-23T12:06:40.616Z,102228.59
2017-12-23T12:09:09.316Z,102213.38
2017-12-23T12:11:38.000Z,102223.36
2017-12-23T12:14:06.398Z,102214.44
2017-12-23T12:16:34.735Z,102216.18
2017-12-23T12:21:38.320Z,102225.67
2017-12-23T12:24:06.734Z,102225.71
2017-12-23T12:26:35.854Z,102220.39
2017-12-23T12:29:05.211Z,102211.42
2017-12-23T12:31:33.723Z,102205.95
2017-12-23T12:34:02.842Z,102203.48
2017-12-23T12:36:31.978Z,102194.56
2017-12-23T12:39:00.855Z,102190.01
2017-12-23T12:41:29.176Z,102196.43
2017-12-23T12:43:59.371Z,102195.87
2017-12-23T12:46:27.743Z,102186.98
2017-12-23T12:48:56.108Z,102175.11
2017-12-23T12:51:24.509Z,102169.84
2017-12-23T12:53:53.179Z,102174.05
2017-12-23T12:56:21.576Z,102172.29
2017-12-23T12:58:49.903Z,102175.75
2017-12-23T13:01:18.314Z,102176.29
2017-12-23T13:03:46.702Z,102173.36
2017-12-23T13:06:15.045Z,102172.89
2017-12-23T13:08:43.419Z,102169.82
2017-12-23T13:11:12.517Z,102165.54
2017-12-23T13:13:41.646Z,102169.52
2017-12-23T13:16:10.541Z,102160.72
2017-12-23T13:18:38.917Z,102162.95
2017-12-23T13:21:07.253Z,102165.02
2017-12-23T13:23:36.387Z,102169.99
2017-12-23T13:26:04.763Z,102169.66
2017-12-23T13:28:33.141Z,102163.31
2017-12-23T13:31:01.571Z,102155.81
2017-12-23T13:33:30.699Z,102149.94
2017-12-23T13:35:59.044Z,102142.80
2017-12-23T13:38:27.459Z,102154.67
2017-12-23T13:40:55.867Z,102153.69
2017-12-23T13:43:24.178Z,102157.72
2017-12-23T13:45:52.594Z,102155.16
2017-12-23T13:48:21.050Z,102150.49
2017-12-23T13:50:49.418Z,102150.58
2017-12-23T13:53:18.596Z,102143.59
2017-12-23T13:55:46.962Z,102158.19
2017-12-23T13:58:15.369Z,102171.04
2017-12-23T14:00:44.367Z,102163.02
2017-12-23T14:03:12.744Z,102158.84
2017-12-23T14:05:41.133Z,102150.33
2017-12-23T14:08:09.534Z,102152.53
2017-12-23T14:10:38.638Z,102149.50
2017-12-23T14:13:06.981Z,102130.05
2017-12-23T14:15:35.359Z,102142.75
2017-12-23T14:18:03.696Z,102140.65
2017-12-23T14:20:32.017Z,102130.65
2017-12-23T14:23:00.973Z,102141.13
2017-12-23T14:25:29.324Z,102127.58
2017-12-23T14:27:58.410Z,102135.05
2017-12-23T14:30:27.539Z,102132.00
2017-12-23T14:32:55.842Z,102124.83
2017-12-23T14:35:24.187Z,102127.02
2017-12-23T14:37:52.543Z,102139.34
2017-12-23T14:40:20.913Z,102141.53
2017-12-23T14:42:49.258Z,102151.73
2017-12-23T14:45:17.808Z,102140.86
2017-12-23T14:47:46.170Z,102136.19
2017-12-23T14:50:14.497Z,102135.83
2017-12-23T14:52:42.856Z,102131.38
2017-12-23T14:55:11.181Z,102133.86
2017-12-23T14:57:39.531Z,102135.44
2017-12-23T15:00:07.938Z,102143.57
2017-12-23T15:02:36.247Z,102140.60
2017-12-23T15:05:04.608Z,102148.02
2017-12-23T15:07:34.202Z,102151.55
2017-12-23T15:10:02.543Z,102146.75
2017-12-23T15:12:30.867Z,102154.96
2017-12-23T15:14:59.999Z,102155.91
2017-12-23T15:17:28.341Z,102142.88
2017-12-23T15:19:56.671Z,102133.78
2017-12-23T15:22:25.066Z,102129.77
2017-12-23T15:24:53.361Z,102133.27
2017-12-23T15:27:21.732Z,102132.33
2017-12-23T15:29:50.263Z,102123.97
2017-12-23T15:32:18.608Z,102113.05
2017-12-23T15:34:46.957Z,102118.89
2017-12-23T15:37:15.319Z,102122.05
2017-12-23T15:39:43.640Z,102116.36
2017-12-23T15:42:12.007Z,102107.77
2017-12-23T15:44:40.383Z,102088.47
2017-12-23T15:47:08.736Z,102095.58
2017-12-23T15:49:37.046Z,102061.47
2017-12-23T15:52:06.073Z,102082.05
2017-12-23T15:54:34.376Z,102074.39
2017-12-23T15:57:02.707Z,102075.70
2017-12-23T15:59:31.083Z,102083.31
2017-12-23T16:01:59.389Z,102073.38
2017-12-23T16:04:28.507Z,102079.16
2017-12-23T16:06:56.932Z,102087.43
2017-12-23T16:09:25.245Z,102086.30
2017-12-23T16:11:54.362Z,102091.66
2017-12-23T16:14:23.212Z,102097.06
2017-12-23T16:16:51.603Z,102106.30
2017-12-23T16:19:20.700Z,102110.42
2017-12-23T16:21:49.847Z,102113.17
2017-12-23T16:24:18.206Z,102105.88
2017-12-23T16:26:46.576Z,102098.28
2017-12-23T16:29:14.946Z,102103.58
2017-12-23T16:31:44.047Z,102102.38
2017-12-23T16:34:12.410Z,102086.20
2017-12-23T16:36:41.943Z,102088.73
2017-12-23T16:39:10.261Z,102068.16
2017-12-23T16:41:38.630Z,102061.83
2017-12-23T16:44:07.014Z,102069.73
2017-12-23T16:46:35.432Z,102084.94
2017-12-23T16:49:04.546Z,102073.95
2017-12-23T16:51:32.946Z,102067.92
2017-12-23T16:54:01.277Z,102078.31
2017-12-23T16:56:29.609Z,102077.47
2017-12-23T16:58:58.341Z,102089.35
2017-12-23T17:01:27.536Z,102086.14
2017-12-23T17:03:55.894Z,102080.96
2017-12-23T17:06:24.323Z,102089.48
2017-12-23T17:08:53.418Z,102086.27
2017-12-23T17:11:21.787Z,102086.70
2017-12-23T17:13:50.924Z,102068.47
2017-12-23T17:16:19.260Z,102075.73
2017-12-23T17:18:48.361Z,102074.05
2017-12-23T17:21:17.118Z,102070.67
2017-12-23T17:23:45.454Z,102077.79
2017-12-23T17:26:13.845Z,102079.84
2017-12-23T17:28:59.996Z,102079.91
2017-12-23T17:31:28.466Z,102081.22
2017-12-23T17:33:56.798Z,102083.94
2017-12-23T17:36:26.106Z,102067.15
2017-12-23T17:38:54.482Z,102061.80
2017-12-23T17:41:22.838Z,102057.44
2017-12-23T17:43:51.311Z,102041.97
2017-12-23T17:46:20.429Z,102037.02
2017-12-23T17:48:48.742Z,102039.31
2017-12-23T17:51:17.451Z,102033.20
2017-12-23T17:53:45.811Z,102038.33
2017-12-23T17:56:14.176Z,102030.46
2017-12-23T17:58:43.038Z,102030.12
2017-12-23T18:01:11.410Z,102031.34
2017-12-23T18:03:39.751Z,102027.83
2017-12-23T18:06:08.102Z,102025.95
2017-12-23T18:08:36.438Z,102019.02
2017-12-23T18:11:05.902Z,102019.64
2017-12-23T18:13:34.254Z,102010.76
2017-12-23T18:16:02.588Z,102003.83
2017-12-23T18:18:30.923Z,101997.48
2017-12-23T18:21:00.308Z,102004.15
2017-12-23T18:23:28.651Z,102004.31
2017-12-23T18:25:57.809Z,102021.98
2017-12-23T18:28:26.164Z,102021.06
2017-12-23T18:30:54.499Z,102018.84
2017-12-23T18:33:22.810Z,102026.01
2017-12-23T18:35:51.206Z,102029.94
2017-12-23T18:38:19.570Z,102018.39
2017-12-23T18:40:47.905Z,102007.52
2017-12-23T18:43:16.466Z,102011.95
2017-12-23T18:45:44.778Z,102022.35
2017-12-23T18:48:13.124Z,102028.62
2017-12-23T18:50:41.534Z,102026.84
2017-12-23T18:53:09.868Z,102037.34
2017-12-23T18:55:38.200Z,102048.09
2017-12-23T18:58:07.316Z,102042.20
2017-12-23T19:00:35.666Z,102041.23
2017-12-23T19:03:04.023Z,102051.62
2017-12-23T19:05:32.794Z,102038.06
2017-12-23T19:08:01.116Z,102060.21
2017-12-23T19:10:30.241Z,102059.38
2017-12-23T19:12:58.596Z,102050.00
2017-12-23T19:15:27.779Z,102045.89
2017-12-23T19:17:56.114Z,102036.05
2017-12-23T19:20:24.463Z,102048.31
2017-12-23T19:22:53.586Z,102034.02
2017-12-23T19:25:21.905Z,102028.01
2017-12-23T19:27:50.834Z,102030.45
2017-12-23T19:30:19.381Z,102028.62
2017-12-23T19:32:47.765Z,102029.38
2017-12-23T19:35:16.379Z,102029.12
2017-12-23T19:37:45.479Z,102023.43
2017-12-23T19:40:13.802Z,102017.97
2017-12-23T19:42:42.179Z,102007.02
2017-12-23T19:45:10.500Z,102008.93
2017-12-23T19:47:39.595Z,102003.88
2017-12-23T19:50:09.434Z,102008.95
2017-12-23T19:52:38.582Z,101984.19
2017-12-23T19:55:06.950Z,101985.56
2017-12-23T19:57:35.332Z,101978.25
2017-12-23T20:00:03.697Z,101979.27
2017-12-23T20:02:32.019Z,101992.98
2017-12-23T20:05:00.447Z,101981.26
2017-12-23T20:07:28.766Z,101980.95
2017-12-23T20:09:57.119Z,101976.19
2017-12-23T20:12:26.002Z,101985.22
2017-12-23T20:14:54.339Z,101988.58
2017-12-23T20:17:23.449Z,101986.69
2017-12-23T20:19:51.811Z,101975.50
2017-12-23T20:22:20.910Z,101974.45
2017-12-23T20:24:49.297Z,101975.00
2017-12-23T20:27:17.650Z,101973.15
2017-12-23T20:29:46.802Z,101979.48
2017-12-23T20:32:15.147Z,101971.28
2017-12-23T20:34:43.678Z,101978.63
2017-12-23T20:37:12.002Z,101970.59
2017-12-23T20:39:41.128Z,101975.25
2017-12-23T20:42:09.508Z,101963.66
2017-12-23T20:44:37.860Z,101966.50
2017-12-23T20:47:06.255Z,101972.05
2017-12-23T20:49:34.882Z,101970.20
2017-12-23T20:52:03.219Z,101969.39
2017-12-23T20:54:31.549Z,101974.66
2017-12-23T20:57:00.043Z,101958.30
2017-12-23T20:59:28.387Z,101956.50
2017-12-23T21:01:56.717Z,101953.45
2017-12-23T21:04:25.870Z,101959.48
2017-12-23T21:06:54.262Z,101950.24
2017-12-23T21:09:23.411Z,101957.41
2017-12-23T21:11:51.899Z,101932.09
2017-12-23T21:14:20.436Z,101957.33
2017-12-23T21:16:49.646Z,101967.14
2017-12-23T21:19:19.407Z,101962.48
2017-12-23T21:21:48.722Z,101982.29
2017-12-23T21:24:17.223Z,101963.48
2017-12-23T21:26:45.883Z,101976.94
2017-12-23T21:29:14.993Z,101976.24
2017-12-23T21:31:43.520Z,101977.95
2017-12-23T21:34:11.920Z,101979.88
2017-12-23T21:36:40.287Z,101982.92
2017-12-23T21:39:10.152Z,101979.66
2017-12-23T21:41:41.165Z,102003.97
2017-12-23T21:44:09.573Z,101979.18
2017-12-23T21:46:38.021Z,101988.27
2017-12-23T21:49:06.422Z,101978.56
2017-12-23T21:51:34.783Z,101974.91
2017-12-23T21:54:03.138Z,101965.87
2017-12-23T21:56:31.513Z,101973.64
2017-12-23T21:59:04.421Z,101971.25
2017-12-23T22:01:33.491Z,101979.78
2017-12-23T22:04:01.837Z,101967.16
2017-12-23T22:06:30.234Z,101979.86
2017-12-23T22:08:58.635Z,101967.66
2017-12-23T22:11:27.750Z,101963.03
2017-12-23T22:13:56.113Z,101967.45
2017-12-23T22:16:24.478Z,101958.74
2017-12-23T22:18:53.602Z,101953.70
2017-12-23T22:21:21.958Z,101974.72
2017-12-23T22:23:51.054Z,101963.66
2017-12-23T22:26:19.465Z,101962.60
2017-12-23T22:28:47.821Z,101965.25
2017-12-23T22:31:16.953Z,101960.65
2017-12-23T22:33:45.370Z,101951.20
2017-12-23T22:36:13.712Z,101945.95
2017-12-23T22:38:42.559Z,101960.27
2017-12-23T22:41:10.898Z,101923.41
2017-12-23T22:43:39.223Z,101932.06
2017-12-23T22:46:07.987Z,101935.72
2017-12-23T22:48:36.298Z,101936.20
2017-12-23T22:51:04.642Z,101929.21
2017-12-23T22:53:32.984Z,101929.00
2017-12-23T22:56:01.324Z,101940.09
2017-12-23T22:58:30.433Z,101932.55
2017-12-23T23:00:58.819Z,101930.66
2017-12-23T23:03:27.159Z,101930.09
2017-12-23T23:05:56.263Z,101929.32
2017-12-23T23:11:22.731Z,101923.67
2017-12-23T23:13:51.049Z,101921.96
2017-12-23T23:16:19.362Z,101917.42
2017-12-23T23:18:47.743Z,101916.75
2017-12-23T23:21:16.105Z,101920.06
2017-12-23T23:23:44.453Z,101917.83
2017-12-23T23:26:12.923Z,101914.03
2017-12-23T23:28:41.310Z,101910.47
2017-12-23T23:31:09.687Z,101911.77
2017-12-23T23:33:38.430Z,101910.80
2017-12-23T23:36:06.777Z,101916.25
2017-12-23T23:38:35.873Z,101901.85
2017-12-23T23:41:04.292Z,101902.94
2017-12-23T23:43:32.631Z,101892.48
2017-12-23T23:46:00.975Z,101887.30
2017-12-23T23:48:29.380Z,101882.82
2017-12-23T23:50:57.773Z,101880.45
2017-12-23T23:53:26.118Z,101898.51
2017-12-23T23:55:54.725Z,101891.47
2017-12-23T23:58:23.076Z,101906.61
